sensor_id;sensor_type;location;lat;lon;timestamp;pressure;altitude;pressure_sealevel;temperature;humidity
66486;BME280;53303;47.476;8.084;2023-02-05T00:02:08;97065.88;;;19.39;35.46
66486;BME280;53303;47.476;8.084;2023-02-05T00:04:34;97063.13;;;19.39;35.48
66486;BME280;53303;47.476;8.084;2023-02-05T00:07:00;97067.84;;;19.39;35.42
66486;BME280;53303;47.476;8.084;2023-02-05T00:09:26;97047.88;;;19.35;35.56
66486;BME280;53303;47.476;8.084;2023-02-05T00:11:56;97059.56;;;19.39;35.34
66486;BME280;53303;47.476;8.084;2023-02-05T00:14:22;97062.78;;;19.37;35.42
66486;BME280;53303;47.476;8.084;2023-02-05T00:16:48;97063.13;;;19.39;35.49
66486;BME280;53303;47.476;8.084;2023-02-05T00:19:13;97060.34;;;19.39;35.45
66486;BME280;53303;47.476;8.084;2023-02-05T00:21:39;97063.88;;;19.40;35.23
66486;BME280;53303;47.476;8.084;2023-02-05T00:24:05;97057.56;;;19.39;35.50
66486;BME280;53303;47.476;8.084;2023-02-05T00:26:32;97058.34;;;19.40;35.36
66486;BME280;53303;47.476;8.084;2023-02-05T00:28:58;97050.34;;;19.33;35.52
66486;BME280;53303;47.476;8.084;2023-02-05T00:31:24;97053.72;;;19.37;35.53
66486;BME280;53303;47.476;8.084;2023-02-05T00:33:50;97056.78;;;19.39;35.28
66486;BME280;53303;47.476;8.084;2023-02-05T00:36:17;97057.56;;;19.39;35.39
66486;BME280;53303;47.476;8.084;2023-02-05T00:38:44;97060.34;;;19.39;35.29
66486;BME280;53303;47.476;8.084;2023-02-05T00:41:10;97063.88;;;19.40;35.26
66486;BME280;53303;47.476;8.084;2023-02-05T00:43:37;97061.88;;;19.40;35.39
66486;BME280;53303;47.476;8.084;2023-02-05T00:46:03;97069.41;;;19.40;35.47
66486;BME280;53303;47.476;8.084;2023-02-05T00:48:28;97067.84;;;19.39;35.34
66486;BME280;53303;47.476;8.084;2023-02-05T00:50:54;97065.56;;;19.37;35.23
66486;BME280;53303;47.476;8.084;2023-02-05T00:53:20;97066.81;;;19.36;35.34
66486;BME280;53303;47.476;8.084;2023-02-05T00:55:46;97071.56;;;19.36;35.08
66486;BME280;53303;47.476;8.084;2023-02-05T00:58:12;97077.72;;;19.40;35.41
66486;BME280;53303;47.476;8.084;2023-02-05T01:00:38;97066.81;;;19.36;35.22
66486;BME280;53303;47.476;8.084;2023-02-05T01:03:04;97074.66;;;19.38;35.24
66486;BME280;53303;47.476;8.084;2023-02-05T01:05:33;97082.00;;;19.41;35.29
66486;BME280;53303;47.476;8.084;2023-02-05T01:08:02;97089.53;;;19.40;35.10
66486;BME280;53303;47.476;8.084;2023-02-05T01:10:27;97077.41;;;19.38;35.03
66486;BME280;53303;47.476;8.084;2023-02-05T01:12:55;97079.72;;;19.39;35.26
66486;BME280;53303;47.476;8.084;2023-02-05T01:15:20;97082.00;;;19.41;35.23
66486;BME280;53303;47.476;8.084;2023-02-05T01:17:46;97075.72;;;19.40;35.30
66486;BME280;53303;47.476;8.084;2023-02-05T01:20:13;97075.72;;;19.40;35.13
66486;BME280;53303;47.476;8.084;2023-02-05T01:22:39;97076.63;;;19.37;35.13
66486;BME280;53303;47.476;8.084;2023-02-05T01:25:05;97062.78;;;19.37;35.10
66486;BME280;53303;47.476;8.084;2023-02-05T01:27:34;97077.41;;;19.38;35.16
66486;BME280;53303;47.476;8.084;2023-02-05T01:29:59;97076.94;;;19.39;35.10
66486;BME280;53303;47.476;8.084;2023-02-05T01:32:27;97082.78;;;19.42;34.99
66486;BME280;53303;47.476;8.084;2023-02-05T01:34:52;97081.41;;;19.37;35.08
66486;BME280;53303;47.476;8.084;2023-02-05T01:37:20;97084.78;;;19.41;35.23
66486;BME280;53303;47.476;8.084;2023-02-05T01:39:46;97087.53;;;19.41;35.15
66486;BME280;53303;47.476;8.084;2023-02-05T01:42:27;97087.25;;;19.39;35.08
66486;BME280;53303;47.476;8.084;2023-02-05T01:47:50;97070.63;;;19.39;35.10
66486;BME280;53303;47.476;8.084;2023-02-05T01:50:20;97075.72;;;19.40;34.84
66486;BME280;53303;47.476;8.084;2023-02-05T01:52:46;97076.63;;;19.37;35.17
66486;BME280;53303;47.476;8.084;2023-02-05T01:55:15;97063.88;;;19.40;34.97
66486;BME280;53303;47.476;8.084;2023-02-05T01:57:41;97057.25;;;19.37;34.98
66486;BME280;53303;47.476;8.084;2023-02-05T02:00:08;97060.34;;;19.39;35.01
66486;BME280;53303;47.476;8.084;2023-02-05T02:02:35;97059.25;;;19.37;35.23
66486;BME280;53303;47.476;8.084;2023-02-05T02:05:06;97054.31;;;19.41;35.04
66486;BME280;53303;47.476;8.084;2023-02-05T02:07:34;97041.88;;;19.36;34.97
66486;BME280;53303;47.476;8.084;2023-02-05T02:10:00;97032.34;;;19.37;34.88
66486;BME280;53303;47.476;8.084;2023-02-05T02:15:00;97029.44;;;19.32;34.92
66486;BME280;53303;47.476;8.084;2023-02-05T02:17:31;97023.13;;;19.31;34.94
66486;BME280;53303;47.476;8.084;2023-02-05T02:20:19;97028.34;;;19.38;34.94
66486;BME280;53303;47.476;8.084;2023-02-05T02:28:27;97029.25;;;19.35;34.87
66486;BME280;53303;47.476;8.084;2023-02-05T02:31:08;97031.56;;;19.37;34.97
66486;BME280;53303;47.476;8.084;2023-02-05T02:34:07;97021.59;;;19.30;35.07
66486;BME280;53303;47.476;8.084;2023-02-05T02:37:02;97014.06;;;19.31;34.95
66486;BME280;53303;47.476;8.084;2023-02-05T02:39:50;97001.63;;;19.26;35.08
66486;BME280;53303;47.476;8.084;2023-02-05T02:42:31;97018.97;;;19.36;34.89
66486;BME280;53303;47.476;8.084;2023-02-05T02:45:06;96991.31;;;19.17;34.87
66486;BME280;53303;47.476;8.084;2023-02-05T02:47:39;96997.31;;;19.25;34.68
66486;BME280;53303;47.476;8.084;2023-02-05T02:50:22;97008.06;;;19.32;34.96
66486;BME280;53303;47.476;8.084;2023-02-05T02:52:53;96987.00;;;19.26;34.96
66486;BME280;53303;47.476;8.084;2023-02-05T02:55:21;96999.28;;;19.34;34.96
66486;BME280;53303;47.476;8.084;2023-02-05T02:57:48;96996.69;;;19.30;34.87
66486;BME280;53303;47.476;8.084;2023-02-05T03:00:19;96975.19;;;19.16;34.85
66486;BME280;53303;47.476;8.084;2023-02-05T03:02:52;96996.84;;;19.36;34.71
66486;BME280;53303;47.476;8.084;2023-02-05T03:05:23;96969.97;;;19.18;34.94
66486;BME280;53303;47.476;8.084;2023-02-05T03:08:03;96970.56;;;19.22;34.88
66486;BME280;53303;47.476;8.084;2023-02-05T03:10:54;96969.47;;;19.19;34.85
66486;BME280;53303;47.476;8.084;2023-02-05T03:13:23;96961.81;;;19.24;34.91
66486;BME280;53303;47.476;8.084;2023-02-05T03:15:48;96966.41;;;19.27;34.71
66486;BME280;53303;47.476;8.084;2023-02-05T03:18:14;96984.97;;;19.35;34.74
66486;BME280;53303;47.476;8.084;2023-02-05T03:20:49;96959.19;;;19.20;34.78
66486;BME280;53303;47.476;8.084;2023-02-05T03:23:15;96963.50;;;19.21;34.71
66486;BME280;53303;47.476;8.084;2023-02-05T03:25:43;96994.53;;;19.34;34.92
66486;BME280;53303;47.476;8.084;2023-02-05T03:28:11;96945.84;;;19.09;34.74
66486;BME280;53303;47.476;8.084;2023-02-05T03:33:29;96968.06;;;19.33;34.74
66486;BME280;53303;47.476;8.084;2023-02-05T03:36:16;96969.31;;;19.32;34.77
66486;BME280;53303;47.476;8.084;2023-02-05T03:46:30;96959.81;;;19.15;34.71
66486;BME280;53303;47.476;8.084;2023-02-05T03:49:16;96973.47;;;19.28;34.56
66486;BME280;53303;47.476;8.084;2023-02-05T03:54:35;96954.88;;;19.28;34.67
66486;BME280;53303;47.476;8.084;2023-02-05T03:59:32;96957.47;;;19.32;34.72
66486;BME280;53303;47.476;8.084;2023-02-05T04:02:01;96955.50;;;19.32;34.65
66486;BME280;53303;47.476;8.084;2023-02-05T04:04:29;96938.91;;;19.14;34.64
66486;BME280;53303;47.476;8.084;2023-02-05T04:06:55;96933.06;;;19.12;34.75
66486;BME280;53303;47.476;8.084;2023-02-05T04:09:23;96950.75;;;19.24;34.56
66486;BME280;53303;47.476;8.084;2023-02-05T04:11:54;96957.78;;;19.25;34.58
66486;BME280;53303;47.476;8.084;2023-02-05T04:14:19;96971.94;;;19.27;34.63
66486;BME280;53303;47.476;8.084;2023-02-05T04:16:45;96960.16;;;19.08;34.53
66486;BME280;53303;47.476;8.084;2023-02-05T04:19:13;96996.06;;;19.26;34.82
66486;BME280;53303;47.476;8.084;2023-02-05T04:21:38;96977.63;;;19.23;34.56
66486;BME280;53303;47.476;8.084;2023-02-05T04:24:04;96958.28;;;19.14;34.55
66486;BME280;53303;47.476;8.084;2023-02-05T04:26:32;96945.06;;;19.18;34.54
66486;BME280;53303;47.476;8.084;2023-02-05T04:28:57;96943.50;;;19.26;34.69
66486;BME280;53303;47.476;8.084;2023-02-05T04:31:25;96944.09;;;19.30;34.48
66486;BME280;53303;47.476;8.084;2023-02-05T04:33:50;96929.38;;;19.15;34.50
66486;BME280;53303;47.476;8.084;2023-02-05T04:36:15;96938.72;;;19.27;34.50
66486;BME280;53303;47.476;8.084;2023-02-05T04:38:41;96943.34;;;19.30;34.56
66486;BME280;53303;47.476;8.084;2023-02-05T04:41:07;96943.78;;;19.28;34.47
66486;BME280;53303;47.476;8.084;2023-02-05T04:43:32;96951.63;;;19.30;34.42
66486;BME280;53303;47.476;8.084;2023-02-05T04:46:08;96964.72;;;19.29;34.50
66486;BME280;53303;47.476;8.084;2023-02-05T04:48:37;96969.50;;;19.29;34.57
66486;BME280;53303;47.476;8.084;2023-02-05T04:51:11;96948.47;;;19.13;34.41
66486;BME280;53303;47.476;8.084;2023-02-05T04:53:40;96959.19;;;19.29;34.96
66486;BME280;53303;47.476;8.084;2023-02-05T04:56:14;96925.06;;;19.14;34.12
66486;BME280;53303;47.476;8.084;2023-02-05T04:58:40;96946.84;;;19.30;34.53
66486;BME280;53303;47.476;8.084;2023-02-05T05:01:20;96940.44;;;19.24;34.56
66486;BME280;53303;47.476;8.084;2023-02-05T05:03:49;96954.41;;;19.30;34.50
66486;BME280;53303;47.476;8.084;2023-02-05T05:06:22;96923.72;;;19.09;34.42
66486;BME280;53303;47.476;8.084;2023-02-05T05:08:47;96918.19;;;19.09;34.49
66486;BME280;53303;47.476;8.084;2023-02-05T05:11:15;96953.94;;;19.31;34.34
66486;BME280;53303;47.476;8.084;2023-02-05T05:13:41;96964.56;;;19.33;34.46
66486;BME280;53303;47.476;8.084;2023-02-05T05:16:09;96971.31;;;19.32;34.47
66486;BME280;53303;47.476;8.084;2023-02-05T05:18:38;96946.59;;;19.19;34.25
66486;BME280;53303;47.476;8.084;2023-02-05T05:21:07;96959.00;;;19.33;34.45
66486;BME280;53303;47.476;8.084;2023-02-05T05:23:38;96967.31;;;19.33;34.53
66486;BME280;53303;47.476;8.084;2023-02-05T05:26:07;96968.06;;;19.33;34.22
66486;BME280;53303;47.476;8.084;2023-02-05T05:28:34;96963.31;;;19.34;34.12
66486;BME280;53303;47.476;8.084;2023-02-05T05:31:07;96951.50;;;19.24;34.29
66486;BME280;53303;47.476;8.084;2023-02-05T05:33:33;96951.03;;;19.26;34.42
66486;BME280;53303;47.476;8.084;2023-02-05T05:35:58;96944.91;;;19.21;34.32
66486;BME280;53303;47.476;8.084;2023-02-05T05:38:24;96937.06;;;19.11;34.24
66486;BME280;53303;47.476;8.084;2023-02-05T05:40:49;96967.47;;;19.29;34.16
66486;BME280;53303;47.476;8.084;2023-02-05T05:43:33;96985.16;;;19.32;34.21
66486;BME280;53303;47.476;8.084;2023-02-05T05:46:22;96972.88;;;19.24;34.20
66486;BME280;53303;47.476;8.084;2023-02-05T05:48:52;96983.31;;;19.29;34.03
66486;BME280;53303;47.476;8.084;2023-02-05T05:51:18;96964.09;;;19.16;34.28
66486;BME280;53303;47.476;8.084;2023-02-05T05:53:45;96986.22;;;19.34;34.15
66486;BME280;53303;47.476;8.084;2023-02-05T05:56:14;96983.63;;;19.31;34.21
66486;BME280;53303;47.476;8.084;2023-02-05T05:58:39;96986.25;;;19.25;34.26
66486;BME280;53303;47.476;8.084;2023-02-05T06:01:06;97003.13;;;19.36;34.25
66486;BME280;53303;47.476;8.084;2023-02-05T06:03:32;96972.13;;;19.14;34.30
66486;BME280;53303;47.476;8.084;2023-02-05T06:06:04;96987.63;;;19.20;34.24
66486;BME280;53303;47.476;8.084;2023-02-05T06:08:33;97007.13;;;19.35;34.13
66486;BME280;53303;47.476;8.084;2023-02-05T06:11:01;96982.25;;;19.26;34.03
66486;BME280;53303;47.476;8.084;2023-02-05T06:13:29;96983.50;;;19.25;34.17
66486;BME280;53303;47.476;8.084;2023-02-05T06:15:55;96973.97;;;19.17;34.21
66486;BME280;53303;47.476;8.084;2023-02-05T06:18:20;96990.25;;;19.24;33.91
66486;BME280;53303;47.476;8.084;2023-02-05T06:20:48;97006.38;;;19.35;33.75
66486;BME280;53303;47.476;8.084;2023-02-05T06:23:20;97006.22;;;19.29;34.16
66486;BME280;53303;47.476;8.084;2023-02-05T06:25:51;97013.91;;;19.34;34.02
66486;BME280;53303;47.476;8.084;2023-02-05T06:28:16;97008.41;;;19.25;33.93
66486;BME280;53303;47.476;8.084;2023-02-05T06:30:44;96990.41;;;19.20;34.08
66486;BME280;53303;47.476;8.084;2023-02-05T06:33:09;97011.13;;;19.34;34.01
66486;BME280;53303;47.476;8.084;2023-02-05T06:35:39;96979.81;;;19.10;33.99
66486;BME280;53303;47.476;8.084;2023-02-05T06:38:05;96996.69;;;19.21;34.07
66486;BME280;53303;47.476;8.084;2023-02-05T06:40:30;97023.72;;;19.35;33.95
66486;BME280;53303;47.476;8.084;2023-02-05T06:42:56;97010.06;;;19.23;33.94
66486;BME280;53303;47.476;8.084;2023-02-05T06:45:25;96996.56;;;19.15;33.84
66486;BME280;53303;47.476;8.084;2023-02-05T06:47:51;97012.06;;;19.31;33.98
66486;BME280;53303;47.476;8.084;2023-02-05T06:50:20;96977.97;;;19.07;33.86
66486;BME280;53303;47.476;8.084;2023-02-05T06:52:46;97023.13;;;19.31;34.30
66486;BME280;53303;47.476;8.084;2023-02-05T06:55:15;97013.94;;;19.25;33.97
66486;BME280;53303;47.476;8.084;2023-02-05T06:57:43;97025.44;;;19.33;34.08
66486;BME280;53303;47.476;8.084;2023-02-05T07:00:12;97024.53;;;19.36;33.88
66486;BME280;53303;47.476;8.084;2023-02-05T07:02:38;97014.84;;;19.22;34.01
66486;BME280;53303;47.476;8.084;2023-02-05T07:05:08;97001.47;;;19.20;34.00
66486;BME280;53303;47.476;8.084;2023-02-05T07:07:36;97018.19;;;19.35;33.81
66486;BME280;53303;47.476;8.084;2023-02-05T07:10:04;97021.75;;;19.36;33.73
66486;BME280;53303;47.476;8.084;2023-02-05T07:12:30;97022.06;;;19.29;33.78
66486;BME280;53303;47.476;8.084;2023-02-05T07:14:58;97015.00;;;19.28;33.92
66486;BME280;53303;47.476;8.084;2023-02-05T07:17:26;97013.31;;;19.21;33.71
66486;BME280;53303;47.476;8.084;2023-02-05T07:19:54;97030.06;;;19.36;33.83
66486;BME280;53303;47.476;8.084;2023-02-05T07:22:22;97024.69;;;19.32;33.76
66486;BME280;53303;47.476;8.084;2023-02-05T07:24:47;97025.75;;;19.35;33.57
66486;BME280;53303;47.476;8.084;2023-02-05T07:27:12;97026.19;;;19.33;33.90
66486;BME280;53303;47.476;8.084;2023-02-05T07:29:40;97034.81;;;19.35;33.62
66486;BME280;53303;47.476;8.084;2023-02-05T07:32:08;97029.44;;;19.32;33.96
66486;BME280;53303;47.476;8.084;2023-02-05T07:34:33;97036.34;;;19.36;33.98
66486;BME280;53303;47.476;8.084;2023-02-05T07:36:59;96994.09;;;19.08;34.17
66486;BME280;53303;47.476;8.084;2023-02-05T07:39:27;97036.22;;;19.31;34.20
66486;BME280;53303;47.476;8.084;2023-02-05T07:41:57;97036.34;;;19.36;33.81
66486;BME280;53303;47.476;8.084;2023-02-05T07:44:22;97024.22;;;19.25;33.54
66486;BME280;53303;47.476;8.084;2023-02-05T07:46:51;97022.69;;;19.24;33.46
66486;BME280;53303;47.476;8.084;2023-02-05T07:49:16;97022.22;;;19.25;33.32
66486;BME280;53303;47.476;8.084;2023-02-05T07:51:42;97026.53;;;19.26;33.51
66486;BME280;53303;47.476;8.084;2023-02-05T07:54:11;97029.13;;;19.30;33.08
66486;BME280;53303;47.476;8.084;2023-02-05T07:56:38;97015.00;;;19.18;33.16
66486;BME280;53303;47.476;8.084;2023-02-05T07:59:04;97020.06;;;19.29;33.15
66486;BME280;53303;47.476;8.084;2023-02-05T08:01:34;96999.94;;;19.29;33.26
66486;BME280;53303;47.476;8.084;2023-02-05T08:04:03;97002.38;;;19.36;33.24
66486;BME280;53303;47.476;8.084;2023-02-05T08:06:32;96985.63;;;19.21;33.31
66486;BME280;53303;47.476;8.084;2023-02-05T08:08:58;97012.19;;;19.37;33.22
66486;BME280;53303;47.476;8.084;2023-02-05T08:11:25;96991.47;;;19.23;33.24
66486;BME280;53303;47.476;8.084;2023-02-05T08:13:51;96991.16;;;19.21;33.19
66486;BME280;53303;47.476;8.084;2023-02-05T08:16:16;97023.44;;;19.33;33.41
66486;BME280;53303;47.476;8.084;2023-02-05T08:18:46;97032.97;;;19.32;33.21
66486;BME280;53303;47.476;8.084;2023-02-05T08:21:14;97044.53;;;19.21;33.23
66486;BME280;53303;47.476;8.084;2023-02-05T08:23:42;97041.91;;;19.18;33.19
66486;BME280;53303;47.476;8.084;2023-02-05T08:26:08;97078.34;;;19.35;33.36
66486;BME280;53303;47.476;8.084;2023-02-05T08:28:33;97088.03;;;19.39;33.33
66486;BME280;53303;47.476;8.084;2023-02-05T08:31:08;97052.84;;;19.21;33.11
66486;BME280;53303;47.476;8.084;2023-02-05T08:33:35;97056.66;;;19.24;33.16
66486;BME280;53303;47.476;8.084;2023-02-05T08:36:05;97061.88;;;19.31;33.24
66486;BME280;53303;47.476;8.084;2023-02-05T08:38:31;97072.63;;;19.38;33.27
66486;BME280;53303;47.476;8.084;2023-02-05T08:41:05;97072.19;;;19.40;33.31
66486;BME280;53303;47.476;8.084;2023-02-05T08:43:42;97053.41;;;19.35;33.19
66486;BME280;53303;47.476;8.084;2023-02-05T08:46:08;97060.66;;;19.42;33.22
66486;BME280;53303;47.476;8.084;2023-02-05T08:48:34;97008.22;;;19.19;33.24
66486;BME280;53303;47.476;8.084;2023-02-05T08:50:59;97027.28;;;19.36;33.34
66486;BME280;53303;47.476;8.084;2023-02-05T08:53:25;97031.41;;;19.40;33.29
66486;BME280;53303;47.476;8.084;2023-02-05T08:56:01;97024.34;;;19.39;33.29
66486;BME280;53303;47.476;8.084;2023-02-05T08:58:31;96995.47;;;19.22;33.35
66486;BME280;53303;47.476;8.084;2023-02-05T09:01:01;97022.06;;;19.38;33.36
66486;BME280;53303;47.476;8.084;2023-02-05T09:03:27;97010.06;;;19.32;33.08
66486;BME280;53303;47.476;8.084;2023-02-05T09:05:56;96993.31;;;19.26;33.42
66486;BME280;53303;47.476;8.084;2023-02-05T09:08:22;96995.31;;;19.26;33.16
66486;BME280;53303;47.476;8.084;2023-02-05T09:10:48;96998.97;;;19.32;33.33
66486;BME280;53303;47.476;8.084;2023-02-05T09:13:13;96984.72;;;19.24;33.40
66486;BME280;53303;47.476;8.084;2023-02-05T09:15:43;97014.34;;;19.42;33.44
66486;BME280;53303;47.476;8.084;2023-02-05T09:18:14;96992.06;;;19.36;33.40
66486;BME280;53303;47.476;8.084;2023-02-05T09:20:44;97002.03;;;19.34;33.31
66486;BME280;53303;47.476;8.084;2023-02-05T09:23:10;96993.75;;;19.34;33.32
66486;BME280;53303;47.476;8.084;2023-02-05T09:25:37;97008.34;;;19.44;33.50
66486;BME280;53303;47.476;8.084;2023-02-05T09:28:03;96990.69;;;19.32;33.43
66486;BME280;53303;47.476;8.084;2023-02-05T09:30:43;96992.97;;;19.33;33.30
66486;BME280;53303;47.476;8.084;2023-02-05T09:33:12;97002.69;;;19.29;33.66
66486;BME280;53303;47.476;8.084;2023-02-05T09:35:40;96998.34;;;19.37;33.57
66486;BME280;53303;47.476;8.084;2023-02-05T09:38:12;97008.06;;;19.42;33.45
66486;BME280;53303;47.476;8.084;2023-02-05T09:41:00;96970.91;;;19.15;33.32
66486;BME280;53303;47.476;8.084;2023-02-05T09:46:02;97004.81;;;19.43;33.51
66486;BME280;53303;47.476;8.084;2023-02-05T09:48:46;97006.03;;;19.42;33.53
66486;BME280;53303;47.476;8.084;2023-02-05T09:54:35;97008.97;;;19.38;33.62
66486;BME280;53303;47.476;8.084;2023-02-05T09:57:09;96994.53;;;19.34;33.52
66486;BME280;53303;47.476;8.084;2023-02-05T09:59:36;96988.53;;;19.27;33.49
66486;BME280;53303;47.476;8.084;2023-02-05T10:02:36;97003.44;;;19.38;33.55
66486;BME280;53303;47.476;8.084;2023-02-05T10:05:11;96989.47;;;19.33;33.51
66486;BME280;53303;47.476;8.084;2023-02-05T10:10:47;96998.22;;;19.31;33.38
66486;BME280;53303;47.476;8.084;2023-02-05T10:26:50;96978.72;;;19.26;33.65
66486;BME280;53303;47.476;8.084;2023-02-05T10:37:01;96961.00;;;19.42;33.48
66486;BME280;53303;47.476;8.084;2023-02-05T10:39:28;96929.50;;;19.30;33.62
66486;BME280;53303;47.476;8.084;2023-02-05T10:42:01;96944.25;;;19.36;33.67
66486;BME280;53303;47.476;8.084;2023-02-05T10:47:17;96938.09;;;19.32;33.50
66486;BME280;53303;47.476;8.084;2023-02-05T10:49:55;96939.81;;;19.29;33.50
66486;BME280;53303;47.476;8.084;2023-02-05T10:52:22;96933.19;;;19.27;33.60
66486;BME280;53303;47.476;8.084;2023-02-05T10:54:47;96942.53;;;19.38;33.48
66486;BME280;53303;47.476;8.084;2023-02-05T10:57:21;96938.84;;;19.42;33.51
66486;BME280;53303;47.476;8.084;2023-02-05T11:02:33;96924.09;;;19.35;33.69
66486;BME280;53303;47.476;8.084;2023-02-05T11:05:39;96931.75;;;19.40;33.62
66486;BME280;53303;47.476;8.084;2023-02-05T11:07:57;96923.63;;;19.37;33.79
66486;BME280;53303;47.476;8.084;2023-02-05T11:10:27;96920.84;;;19.37;33.70
66486;BME280;53303;47.476;8.084;2023-02-05T11:12:58;96931.31;;;19.42;33.75
66486;BME280;53303;47.476;8.084;2023-02-05T11:15:35;96922.88;;;19.36;33.58
66486;BME280;53303;47.476;8.084;2023-02-05T11:18:05;96933.31;;;19.42;33.79
66486;BME280;53303;47.476;8.084;2023-02-05T11:20:38;96920.09;;;19.36;33.69
66486;BME280;53303;47.476;8.084;2023-02-05T11:25:35;96900.31;;;19.29;33.73
66486;BME280;53303;47.476;8.084;2023-02-05T11:28:04;96904.13;;;19.31;33.66
66486;BME280;53303;47.476;8.084;2023-02-05T11:30:37;96908.84;;;19.40;33.84
66486;BME280;53303;47.476;8.084;2023-02-05T11:35:56;96908.09;;;19.39;33.76
66486;BME280;53303;47.476;8.084;2023-02-05T11:40:57;96901.03;;;19.38;33.74
66486;BME280;53303;47.476;8.084;2023-02-05T11:45:58;96872.63;;;19.19;33.69
66486;BME280;53303;47.476;8.084;2023-02-05T11:48:37;96897.19;;;19.36;33.76
66486;BME280;53303;47.476;8.084;2023-02-05T11:51:10;96902.56;;;19.39;33.69
66486;BME280;53303;47.476;8.084;2023-02-05T11:53:54;96892.47;;;19.27;33.78
66486;BME280;53303;47.476;8.084;2023-02-05T11:56:22;96882.91;;;19.28;33.78
66486;BME280;53303;47.476;8.084;2023-02-05T11:59:05;96895.19;;;19.36;33.76
66486;BME280;53303;47.476;8.084;2023-02-05T12:01:32;96894.25;;;19.39;33.75
66486;BME280;53303;47.476;8.084;2023-02-05T12:06:40;96888.72;;;19.39;33.74
66486;BME280;53303;47.476;8.084;2023-02-05T12:09:13;96889.47;;;19.40;33.46
66486;BME280;53303;47.476;8.084;2023-02-05T12:12:06;96854.69;;;19.15;33.77
66486;BME280;53303;47.476;8.084;2023-02-05T12:23:13;96869.81;;;19.38;33.76
66486;BME280;53303;47.476;8.084;2023-02-05T12:28:17;96866.25;;;19.37;33.92
66486;BME280;53303;47.476;8.084;2023-02-05T12:33:26;96855.97;;;19.38;33.78
66486;BME280;53303;47.476;8.084;2023-02-05T12:36:21;96857.97;;;19.37;33.75
66486;BME280;53303;47.476;8.084;2023-02-05T12:39:14;96854.59;;;19.33;33.80
66486;BME280;53303;47.476;8.084;2023-02-05T12:42:04;96836.81;;;19.25;33.92
66486;BME280;53303;47.476;8.084;2023-02-05T12:53:44;96828.19;;;19.32;33.97
66486;BME280;53303;47.476;8.084;2023-02-05T12:59:11;96790.41;;;19.20;33.95
66486;BME280;53303;47.476;8.084;2023-02-05T13:01:44;96799.13;;;19.28;33.95
66486;BME280;53303;47.476;8.084;2023-02-05T13:04:21;96799.72;;;19.32;33.83
66486;BME280;53303;47.476;8.084;2023-02-05T13:06:57;96786.84;;;19.29;33.96
66486;BME280;53303;47.476;8.084;2023-02-05T13:09:41;96780.97;;;19.27;33.80
66486;BME280;53303;47.476;8.084;2023-02-05T13:12:12;96800.63;;;19.38;33.99
66486;BME280;53303;47.476;8.084;2023-02-05T13:14:52;96776.41;;;19.24;33.91
66486;BME280;53303;47.476;8.084;2023-02-05T13:17:27;96779.00;;;19.27;34.12
66486;BME280;53303;47.476;8.084;2023-02-05T13:19:59;96775.16;;;19.25;34.01
66486;BME280;53303;47.476;8.084;2023-02-05T13:22:42;96785.69;;;19.35;33.92
66486;BME280;53303;47.476;8.084;2023-02-05T13:25:35;96754.72;;;19.22;33.81
66486;BME280;53303;47.476;8.084;2023-02-05T13:33:43;96765.09;;;19.36;33.88
66486;BME280;53303;47.476;8.084;2023-02-05T13:38:41;96766.63;;;19.37;33.98
66486;BME280;53303;47.476;8.084;2023-02-05T13:58:04;96743.91;;;19.33;33.85
66486;BME280;53303;47.476;8.084;2023-02-05T14:00:34;96732.25;;;19.29;33.78
66486;BME280;53303;47.476;8.084;2023-02-05T14:03:01;96714.75;;;19.23;33.80
66486;BME280;53303;47.476;8.084;2023-02-05T14:05:40;96740.66;;;19.35;33.96
66486;BME280;53303;47.476;8.084;2023-02-05T14:08:19;96717.03;;;19.25;33.93
66486;BME280;53303;47.476;8.084;2023-02-05T14:10:58;96709.38;;;19.19;33.74
66486;BME280;53303;47.476;8.084;2023-02-05T14:13:29;96712.41;;;19.31;33.92
66486;BME280;53303;47.476;8.084;2023-02-05T14:15:57;96718.34;;;19.38;34.07
66486;BME280;53303;47.476;8.084;2023-02-05T14:18:48;96714.38;;;19.30;33.96
66486;BME280;53303;47.476;8.084;2023-02-05T14:30:35;96694.16;;;19.24;34.07
66486;BME280;53303;47.476;8.084;2023-02-05T14:41:52;96662.34;;;19.19;33.94
66486;BME280;53303;47.476;8.084;2023-02-05T14:44:22;96669.81;;;19.28;33.47
66486;BME280;53303;47.476;8.084;2023-02-05T14:52:28;96668.94;;;19.22;33.91
66486;BME280;53303;47.476;8.084;2023-02-05T14:57:47;96669.81;;;19.28;33.88
66486;BME280;53303;47.476;8.084;2023-02-05T15:00:36;96663.06;;;19.29;33.90
66486;BME280;53303;47.476;8.084;2023-02-05T15:13:20;96662.88;;;19.33;33.89
66486;BME280;53303;47.476;8.084;2023-02-05T15:16:23;96665.81;;;19.29;34.14
66486;BME280;53303;47.476;8.084;2023-02-05T15:18:58;96646.94;;;19.28;33.82
66486;BME280;53303;47.476;8.084;2023-02-05T15:21:35;96657.81;;;19.31;34.13
66486;BME280;53303;47.476;8.084;2023-02-05T15:26:44;96660.88;;;19.33;34.04
66486;BME280;53303;47.476;8.084;2023-02-05T15:29:34;96656.78;;;19.29;34.08
66486;BME280;53303;47.476;8.084;2023-02-05T15:32:05;96658.47;;;19.26;34.04
66486;BME280;53303;47.476;8.084;2023-02-05T15:34:41;96641.75;;;19.20;34.26
66486;BME280;53303;47.476;8.084;2023-02-05T15:37:21;96656.44;;;19.27;34.46
66486;BME280;53303;47.476;8.084;2023-02-05T15:40:03;96649.75;;;19.18;34.17
66486;BME280;53303;47.476;8.084;2023-02-05T15:45:23;96655.50;;;19.30;34.21
66486;BME280;53303;47.476;8.084;2023-02-05T15:50:55;96637.16;;;19.17;34.29
66486;BME280;53303;47.476;8.084;2023-02-05T15:56:15;96663.06;;;19.29;34.17
66486;BME280;53303;47.476;8.084;2023-02-05T16:01:42;96672.59;;;19.28;34.22
66486;BME280;53303;47.476;8.084;2023-02-05T16:04:32;96661.41;;;19.23;34.26
66486;BME280;53303;47.476;8.084;2023-02-05T16:07:00;96658.00;;;19.28;34.17
66486;BME280;53303;47.476;8.084;2023-02-05T16:09:28;96661.88;;;19.21;34.15
66486;BME280;53303;47.476;8.084;2023-02-05T16:11:56;96663.25;;;19.26;34.22
66486;BME280;53303;47.476;8.084;2023-02-05T16:14:34;96653.66;;;19.12;34.19
66486;BME280;53303;47.476;8.084;2023-02-05T16:17:30;96669.25;;;19.24;34.42